createdAt,value
2023-01-21T01:22:58.329Z,24.32
2023-01-21T01:25:27.505Z,21.73
2023-01-21T01:27:56.483Z,21.60
2023-01-21T01:30:25.449Z,22.50
2023-01-21T01:32:55.094Z,19.77
2023-01-21T01:35:23.878Z,22.90
2023-01-21T01:37:53.428Z,21.20
2023-01-21T01:40:22.190Z,21.87
2023-01-21T01:42:51.099Z,22.75
2023-01-21T01:45:22.703Z,21.77
2023-01-21T01:47:59.837Z,21.68
2023-01-21T01:50:33.588Z,20.92
2023-01-21T01:53:02.627Z,20.65
2023-01-21T01:55:34.048Z,21.20
2023-01-21T01:58:07.368Z,22.20
2023-01-21T02:00:36.465Z,19.10
2023-01-21T02:03:24.173Z,19.77
2023-01-21T02:05:53.182Z,20.85
2023-01-21T02:08:24.281Z,20.97
2023-01-21T02:10:55.041Z,19.52
2023-01-21T02:13:29.193Z,20.05
2023-01-21T02:16:41.955Z,19.57
2023-01-21T02:19:38.743Z,18.20
2023-01-21T02:22:27.584Z,20.52
2023-01-21T02:25:21.498Z,19.05
2023-01-21T02:28:24.102Z,19.40
2023-01-21T02:31:17.120Z,19.10
2023-01-21T02:34:15.667Z,19.05
2023-01-21T02:36:55.963Z,18.10
2023-01-21T02:40:10.281Z,18.30
2023-01-21T02:42:49.465Z,18.60
2023-01-21T02:45:45.202Z,18.62
2023-01-21T02:48:31.982Z,17.48
2023-01-21T02:51:02.289Z,18.15
2023-01-21T02:53:36.153Z,18.85
2023-01-21T02:56:25.034Z,18.25
2023-01-21T02:58:59.263Z,16.30
2023-01-21T03:01:44.002Z,18.55
2023-01-21T03:04:33.778Z,18.02
2023-01-21T03:07:17.520Z,17.45
2023-01-21T03:09:46.380Z,16.48
2023-01-21T03:12:23.796Z,18.85
2023-01-21T03:18:01.696Z,17.17
2023-01-21T03:20:41.311Z,17.17
2023-01-21T03:23:24.677Z,17.15
2023-01-21T03:25:55.136Z,17.73
2023-01-21T03:28:27.186Z,16.52
2023-01-21T03:31:04.545Z,16.52
2023-01-21T03:33:36.178Z,16.95
2023-01-21T03:36:13.211Z,17.25
2023-01-21T03:38:47.646Z,16.80
2023-01-21T03:41:21.447Z,16.90
2023-01-21T03:43:50.931Z,17.02
2023-01-21T03:46:34.257Z,17.45
2023-01-21T03:49:24.453Z,18.05
2023-01-21T03:51:59.808Z,18.15
2023-01-21T03:54:29.102Z,17.48
2023-01-21T03:56:59.967Z,16.95
2023-01-21T03:59:29.242Z,17.52
2023-01-21T04:01:59.011Z,17.85
2023-01-21T04:04:27.563Z,17.25
2023-01-21T04:06:57.821Z,16.95
2023-01-21T04:09:26.698Z,16.25
2023-01-21T04:11:55.670Z,16.67
2023-01-21T04:14:25.054Z,16.52
2023-01-21T04:16:55.625Z,16.23
2023-01-21T04:19:24.818Z,16.82
2023-01-21T04:21:53.669Z,16.32
2023-01-21T04:24:23.431Z,17.20
2023-01-21T04:26:52.582Z,15.70
2023-01-21T04:29:22.526Z,15.83
2023-01-21T04:31:52.170Z,14.85
2023-01-21T04:34:21.553Z,14.53
2023-01-21T04:36:50.391Z,16.10
2023-01-21T04:39:19.949Z,16.00
2023-01-21T04:41:49.042Z,15.40
2023-01-21T04:44:17.695Z,16.42
2023-01-21T04:46:47.257Z,15.90
2023-01-21T04:49:15.913Z,14.65
2023-01-21T04:51:46.208Z,15.23
2023-01-21T04:54:15.109Z,15.58
2023-01-21T04:56:45.538Z,14.40
2023-01-21T04:59:15.974Z,15.58
2023-01-21T05:01:45.283Z,14.87
2023-01-21T05:04:14.604Z,14.87
2023-01-21T05:06:43.949Z,14.78
2023-01-21T05:09:13.578Z,14.98
2023-01-21T05:11:43.209Z,14.90
2023-01-21T05:14:12.882Z,15.75
2023-01-21T05:16:41.545Z,14.90
2023-01-21T05:19:10.817Z,15.78
2023-01-21T05:21:41.893Z,15.28
2023-01-21T05:24:10.942Z,14.10
2023-01-21T05:26:41.171Z,14.80
2023-01-21T05:29:11.168Z,14.58
2023-01-21T05:31:40.278Z,13.68
2023-01-21T05:34:09.913Z,14.35
2023-01-21T05:36:39.579Z,15.38
2023-01-21T05:39:09.871Z,16.10
2023-01-21T05:41:39.210Z,16.52
2023-01-21T05:44:09.985Z,15.53
2023-01-21T05:46:38.866Z,16.35
2023-01-21T05:49:07.830Z,15.65
2023-01-21T05:51:37.525Z,15.95
2023-01-21T05:54:06.581Z,15.10
2023-01-21T05:56:35.577Z,14.28
2023-01-21T05:59:05.196Z,15.43
2023-01-21T06:01:34.502Z,15.58
2023-01-21T06:04:05.170Z,14.80
2023-01-21T06:06:35.613Z,14.18
2023-01-21T06:09:05.151Z,13.95
2023-01-21T06:11:34.235Z,14.63
2023-01-21T06:14:04.840Z,13.88
2023-01-21T06:16:34.347Z,14.03
2023-01-21T06:19:03.936Z,13.95
2023-01-21T06:21:34.720Z,15.48
2023-01-21T06:24:04.431Z,14.73
2023-01-21T06:26:36.483Z,13.93
2023-01-21T06:29:05.523Z,14.38
2023-01-21T06:31:34.787Z,13.93
2023-01-21T06:34:04.724Z,14.95
2023-01-21T06:36:34.333Z,14.40
2023-01-21T06:39:04.027Z,14.65
2023-01-21T06:41:33.639Z,13.95
2023-01-21T06:44:03.686Z,14.75
2023-01-21T06:46:34.610Z,14.80
2023-01-21T06:49:04.370Z,14.05
2023-01-21T06:51:32.981Z,13.35
2023-01-21T06:54:03.281Z,14.95
2023-01-21T06:56:32.129Z,14.87
2023-01-21T06:59:03.302Z,12.60
2023-01-21T07:01:33.915Z,13.85
2023-01-21T07:04:03.491Z,14.63
2023-01-21T07:06:32.484Z,13.25
2023-01-21T07:09:03.855Z,14.40
2023-01-21T07:11:33.666Z,12.65
2023-01-21T07:14:03.032Z,13.72
2023-01-21T07:16:33.154Z,13.68
2023-01-21T07:19:02.176Z,14.20
2023-01-21T07:21:31.366Z,13.55
2023-01-21T07:24:00.551Z,13.80
2023-01-21T07:26:30.928Z,13.00
2023-01-21T07:29:01.808Z,14.15
2023-01-21T07:31:31.000Z,14.13
2023-01-21T07:34:00.439Z,13.62
2023-01-21T07:36:30.657Z,13.93
2023-01-21T07:38:59.703Z,13.90
2023-01-21T07:41:28.701Z,13.70
2023-01-21T07:43:58.066Z,13.45
2023-01-21T07:46:28.651Z,13.15
2023-01-21T07:48:58.522Z,12.63
2023-01-21T07:51:27.497Z,13.85
2023-01-21T07:53:58.824Z,13.72
2023-01-21T07:56:28.740Z,12.75
2023-01-21T07:58:58.071Z,13.48
2023-01-21T08:01:28.631Z,13.53
2023-01-21T08:03:59.852Z,13.55
2023-01-21T08:06:29.028Z,14.00
2023-01-21T08:08:59.187Z,13.28
2023-01-21T08:11:28.138Z,14.10
2023-01-21T08:13:57.228Z,14.15
2023-01-21T08:16:27.440Z,13.40
2023-01-21T08:18:56.450Z,13.48
2023-01-21T08:21:25.995Z,13.48
2023-01-21T08:23:56.330Z,14.05
2023-01-21T08:26:26.305Z,13.50
2023-01-21T08:28:55.708Z,13.90
2023-01-21T08:31:24.699Z,13.38
2023-01-21T08:33:54.367Z,13.08
2023-01-21T08:36:24.019Z,13.98
2023-01-21T08:39:01.714Z,13.85
2023-01-21T08:41:31.564Z,14.18
2023-01-21T08:44:02.455Z,14.75
2023-01-21T08:46:32.091Z,15.48
2023-01-21T08:49:01.487Z,14.15
2023-01-21T08:51:33.577Z,13.62
2023-01-21T08:54:10.434Z,14.10
2023-01-21T08:56:40.135Z,13.62
2023-01-21T08:59:09.557Z,13.65
2023-01-21T09:01:40.968Z,14.23
2023-01-21T09:04:10.216Z,13.80
2023-01-21T09:06:41.170Z,13.95
2023-01-21T09:09:11.341Z,15.85
2023-01-21T09:11:41.270Z,14.18
2023-01-21T09:14:10.061Z,14.30
2023-01-21T09:16:40.333Z,15.28
2023-01-21T09:19:09.911Z,14.43
2023-01-21T09:21:40.802Z,14.75
2023-01-21T09:24:10.235Z,15.53
2023-01-21T09:26:43.748Z,14.47
2023-01-21T09:29:13.160Z,15.25
2023-01-21T09:31:42.545Z,15.00
2023-01-21T09:34:11.787Z,16.40
2023-01-21T09:36:46.206Z,15.20
2023-01-21T09:39:15.901Z,15.93
2023-01-21T09:41:51.679Z,16.10
2023-01-21T09:44:35.688Z,15.75
2023-01-21T09:47:24.789Z,16.00
2023-01-21T09:50:04.821Z,16.17
2023-01-21T09:52:45.821Z,17.40
2023-01-21T09:55:24.763Z,16.85
2023-01-21T09:58:17.286Z,15.63
2023-01-21T10:01:07.677Z,17.15
2023-01-21T10:04:07.710Z,16.82
2023-01-21T10:06:50.821Z,16.32
2023-01-21T10:09:33.487Z,15.98
2023-01-21T10:15:40.639Z,15.83
2023-01-21T10:18:25.224Z,16.00
2023-01-21T10:21:18.219Z,16.07
2023-01-21T10:23:51.733Z,16.35
2023-01-21T10:26:21.987Z,16.57
2023-01-21T10:28:55.476Z,16.40
2023-01-21T10:31:27.155Z,16.05
2023-01-21T10:33:57.227Z,17.40
2023-01-21T10:36:51.240Z,17.62
2023-01-21T10:40:08.468Z,17.32
2023-01-21T10:43:04.836Z,16.82
2023-01-21T10:45:42.401Z,15.68
2023-01-21T10:48:38.577Z,16.05
2023-01-21T10:51:25.553Z,16.12
2023-01-21T10:54:09.225Z,16.13
2023-01-21T10:57:04.715Z,17.77
2023-01-21T10:59:35.710Z,18.00
2023-01-21T11:02:15.830Z,16.12
2023-01-21T11:04:46.417Z,16.75
2023-01-21T11:07:18.424Z,19.32
2023-01-21T11:09:48.188Z,16.87
2023-01-21T11:12:20.134Z,17.75
2023-01-21T11:15:02.321Z,17.82
2023-01-21T11:17:37.365Z,16.52
2023-01-21T11:20:36.832Z,16.75
2023-01-21T11:23:07.253Z,17.48
2023-01-21T11:25:42.108Z,16.65
2023-01-21T11:28:26.456Z,15.68
2023-01-21T11:31:06.453Z,15.25
2023-01-21T11:33:35.635Z,17.27
2023-01-21T11:36:17.837Z,17.00
2023-01-21T11:38:50.672Z,16.70
2023-01-21T11:41:23.347Z,18.10
2023-01-21T11:43:54.598Z,17.87
2023-01-21T11:46:37.102Z,18.35
2023-01-21T11:49:17.717Z,18.57
2023-01-21T11:51:47.103Z,18.73
2023-01-21T11:54:21.692Z,19.52
2023-01-21T11:56:59.403Z,19.40
2023-01-21T11:59:43.178Z,19.70
2023-01-21T12:02:29.277Z,22.27
2023-01-21T12:05:08.583Z,20.08
2023-01-21T12:07:42.713Z,22.17
2023-01-21T12:10:24.416Z,21.10
2023-01-21T12:13:01.831Z,21.82
2023-01-21T12:16:08.274Z,21.20
2023-01-21T12:19:04.384Z,20.52
2023-01-21T12:21:50.589Z,21.97
2023-01-21T12:24:44.150Z,20.55
2023-01-21T12:27:37.988Z,19.60
2023-01-21T12:30:27.383Z,20.77
2023-01-21T12:33:07.096Z,17.20
2023-01-21T12:35:45.449Z,17.10
2023-01-21T12:38:32.994Z,16.30
2023-01-21T12:41:13.338Z,16.50
2023-01-21T12:43:48.059Z,16.67
2023-01-21T12:46:34.776Z,16.07
2023-01-21T12:49:18.302Z,16.60
2023-01-21T12:51:50.283Z,16.40
2023-01-21T12:54:37.518Z,16.15
2023-01-21T12:57:41.397Z,15.68
2023-01-21T13:00:17.983Z,16.42
2023-01-21T13:03:12.917Z,15.00
2023-01-21T13:06:10.089Z,16.07
2023-01-21T13:09:02.562Z,15.70
2023-01-21T13:11:44.316Z,14.65
2023-01-21T13:14:21.353Z,14.58
2023-01-21T13:17:03.256Z,13.93
2023-01-21T13:19:33.865Z,13.90
2023-01-21T13:22:19.387Z,13.98
2023-01-21T13:25:30.896Z,14.20
2023-01-21T13:28:34.611Z,12.05
2023-01-21T13:34:40.512Z,10.63
2023-01-21T13:37:39.434Z,11.35
2023-01-21T13:40:19.855Z,14.00
2023-01-21T13:43:09.521Z,12.58
2023-01-21T13:46:06.669Z,12.18
2023-01-21T13:49:13.021Z,8.58
2023-01-21T13:52:00.084Z,11.30
2023-01-21T13:55:01.797Z,12.15
2023-01-21T13:57:51.182Z,11.33
2023-01-21T14:00:37.932Z,10.40
2023-01-21T14:03:15.560Z,10.25
2023-01-21T14:05:58.309Z,12.18
2023-01-21T14:08:49.980Z,12.85
2023-01-21T14:11:43.171Z,11.45
2023-01-21T14:14:27.780Z,12.13
2023-01-21T14:17:21.638Z,11.20
2023-01-21T14:20:05.739Z,11.55
2023-01-21T14:22:58.805Z,13.30
2023-01-21T14:25:44.541Z,13.13
2023-01-21T14:28:31.971Z,13.00
2023-01-21T14:31:15.373Z,13.13
2023-01-21T14:34:10.991Z,11.33
2023-01-21T14:37:04.559Z,13.98
2023-01-21T14:39:59.770Z,12.13
2023-01-21T14:42:47.488Z,12.23
2023-01-21T14:45:21.486Z,12.37
2023-01-21T14:47:53.685Z,12.25
2023-01-21T14:50:52.739Z,16.15
2023-01-21T14:53:26.081Z,13.48
2023-01-21T14:56:19.803Z,11.60
2023-01-21T14:58:56.742Z,11.55
2023-01-21T15:01:44.451Z,10.90
2023-01-21T15:04:26.311Z,12.40
2023-01-21T15:07:09.347Z,12.07
2023-01-21T15:09:55.224Z,10.82
2023-01-21T15:12:28.741Z,10.32
2023-01-21T15:15:15.974Z,11.97
2023-01-21T15:18:05.658Z,8.85
2023-01-21T15:20:56.526Z,10.30
2023-01-21T15:26:16.768Z,9.23
2023-01-21T15:28:55.455Z,9.50
2023-01-21T15:31:29.980Z,9.70
2023-01-21T15:34:01.779Z,9.60
2023-01-21T15:36:40.150Z,9.93
2023-01-21T15:39:18.833Z,10.53
2023-01-21T15:42:11.560Z,10.72
2023-01-21T15:45:02.768Z,10.93
2023-01-21T15:47:41.189Z,11.63
2023-01-21T15:50:46.467Z,10.18
2023-01-21T15:53:33.010Z,10.78
2023-01-21T15:56:25.760Z,11.35
2023-01-21T15:59:31.967Z,11.43
2023-01-21T16:02:19.640Z,13.75
2023-01-21T16:05:20.200Z,14.25
2023-01-21T16:08:26.687Z,13.25
2023-01-21T16:11:26.788Z,11.93
2023-01-21T16:14:26.003Z,13.45
2023-01-21T16:17:10.098Z,12.88
2023-01-21T16:19:45.273Z,12.18
2023-01-21T16:22:19.280Z,15.20
2023-01-21T16:24:52.742Z,13.22
2023-01-21T16:27:26.021Z,12.23
2023-01-21T16:30:05.061Z,12.35
2023-01-21T16:32:36.703Z,11.30
2023-01-21T16:35:06.455Z,11.57
2023-01-21T16:37:36.663Z,12.00
2023-01-21T16:40:13.910Z,12.40
2023-01-21T16:42:44.251Z,12.45
2023-01-21T16:45:22.465Z,11.18
2023-01-21T16:47:59.332Z,11.30
2023-01-21T16:50:31.108Z,11.50
2023-01-21T16:53:01.006Z,12.10
2023-01-21T16:55:31.224Z,10.93
2023-01-21T16:58:00.880Z,11.48
2023-01-21T17:00:31.775Z,11.38
2023-01-21T17:03:03.810Z,11.30
2023-01-21T17:05:35.100Z,11.85
2023-01-21T17:08:05.102Z,11.60
2023-01-21T17:10:39.362Z,11.53
2023-01-21T17:13:15.690Z,11.65
2023-01-21T17:15:54.553Z,12.03
2023-01-21T17:18:40.575Z,12.18
2023-01-21T17:21:19.601Z,11.55
2023-01-21T17:23:53.375Z,11.28
2023-01-21T17:26:47.450Z,12.18
2023-01-21T17:29:29.248Z,11.65
2023-01-21T17:32:04.380Z,11.70
2023-01-21T17:34:37.378Z,12.93
2023-01-21T17:37:29.023Z,12.18
2023-01-21T17:40:01.278Z,12.55
2023-01-21T17:42:32.643Z,12.80
2023-01-21T17:45:05.125Z,13.38
2023-01-21T17:47:56.815Z,14.35
2023-01-21T17:50:19.081Z,14.07
2023-01-21T17:53:01.863Z,13.20
2023-01-21T17:55:40.415Z,12.90
2023-01-21T17:58:48.879Z,13.18
2023-01-21T18:01:19.668Z,13.28
2023-01-21T18:03:49.324Z,12.93
2023-01-21T18:06:22.964Z,11.33
2023-01-21T18:08:54.179Z,12.53
2023-01-21T18:11:23.692Z,12.45
2023-01-21T18:13:52.843Z,12.73
2023-01-21T18:16:23.051Z,11.97
2023-01-21T18:18:54.354Z,11.28
2023-01-21T18:21:26.539Z,11.85
2023-01-21T18:23:56.269Z,10.28
2023-01-21T18:26:31.280Z,10.48
2023-01-21T18:29:00.340Z,10.65
2023-01-21T18:31:29.260Z,10.50
2023-01-21T18:33:58.053Z,10.55
2023-01-21T18:36:27.909Z,11.12
2023-01-21T18:38:57.593Z,10.72
2023-01-21T18:41:27.304Z,11.53
2023-01-21T18:43:56.844Z,12.30
2023-01-21T18:46:26.424Z,12.07
2023-01-21T18:48:56.085Z,12.70
2023-01-21T18:51:28.816Z,12.35
2023-01-21T18:53:59.241Z,12.15
2023-01-21T18:56:29.668Z,10.50
2023-01-21T18:58:59.870Z,11.30
2023-01-21T19:01:30.024Z,11.08
2023-01-21T19:03:59.762Z,9.90
2023-01-21T19:06:29.581Z,9.38
2023-01-21T19:08:58.971Z,10.18
2023-01-21T19:11:27.802Z,10.03
2023-01-21T19:13:57.313Z,9.98
2023-01-21T19:16:29.360Z,9.68
2023-01-21T19:18:59.017Z,9.73
2023-01-21T19:21:30.277Z,9.08
2023-01-21T19:24:00.048Z,9.35
2023-01-21T19:26:30.078Z,9.30
2023-01-21T19:28:59.175Z,9.73
2023-01-21T19:31:28.747Z,9.05
2023-01-21T19:33:58.472Z,9.28
2023-01-21T19:36:27.991Z,9.85
2023-01-21T19:38:59.077Z,8.93
2023-01-21T19:41:29.079Z,9.33
2023-01-21T19:43:58.788Z,9.30
2023-01-21T19:46:29.834Z,10.35
2023-01-21T19:52:02.239Z,10.40
2023-01-21T19:54:32.989Z,10.28
2023-01-21T19:57:02.995Z,11.33
2023-01-21T19:59:34.560Z,9.08
2023-01-21T20:02:06.016Z,9.20
2023-01-21T20:04:35.701Z,10.08
2023-01-21T20:07:04.520Z,9.75
2023-01-21T20:09:33.902Z,9.55
2023-01-21T20:12:05.994Z,9.78
2023-01-21T20:14:37.309Z,10.15
2023-01-21T20:17:06.182Z,9.90
2023-01-21T20:19:36.939Z,10.58
2023-01-21T20:22:08.517Z,9.60
2023-01-21T20:24:41.052Z,10.78
2023-01-21T20:27:11.178Z,10.70
2023-01-21T20:29:49.653Z,10.60
2023-01-21T20:32:13.864Z,11.00
2023-01-21T20:34:43.667Z,10.63
2023-01-21T20:37:15.297Z,11.48
2023-01-21T20:39:44.991Z,10.75
2023-01-21T20:42:15.194Z,11.00
2023-01-21T20:44:44.501Z,11.40
2023-01-21T20:47:13.530Z,10.90
2023-01-21T20:49:43.544Z,11.88
2023-01-21T20:52:13.655Z,11.63
2023-01-21T20:54:43.435Z,12.13
2023-01-21T20:57:16.011Z,11.85
2023-01-21T20:59:46.258Z,11.05
2023-01-21T21:02:15.235Z,11.85
2023-01-21T21:04:47.840Z,10.95
2023-01-21T21:07:16.589Z,11.75
2023-01-21T21:09:46.719Z,13.03
2023-01-21T21:12:17.578Z,11.97
2023-01-21T21:14:47.254Z,11.97
2023-01-21T21:17:16.775Z,12.10
2023-01-21T21:19:47.522Z,13.05
2023-01-21T21:22:16.764Z,13.03
2023-01-21T21:24:46.837Z,13.08
2023-01-21T21:27:16.913Z,12.95
2023-01-21T21:29:47.438Z,12.98
2023-01-21T21:32:19.448Z,12.93
2023-01-21T21:34:50.451Z,14.23
2023-01-21T21:37:21.571Z,13.50
2023-01-21T21:39:50.940Z,14.03
2023-01-21T21:42:39.105Z,14.47
2023-01-21T21:45:09.365Z,14.20
2023-01-21T21:47:56.547Z,13.65
2023-01-21T21:50:26.152Z,13.58
2023-01-21T21:52:55.427Z,14.25
2023-01-21T21:55:26.604Z,13.68
2023-01-21T21:57:56.581Z,14.38
2023-01-21T22:00:27.202Z,24.72
2023-01-21T22:02:59.777Z,14.25
2023-01-21T22:05:30.472Z,13.75
2023-01-21T22:08:00.577Z,14.30
2023-01-21T22:10:30.041Z,14.50
2023-01-21T22:12:59.476Z,14.33
2023-01-21T22:15:28.538Z,15.35
2023-01-21T22:17:57.986Z,15.70
2023-01-21T22:20:27.098Z,15.25
2023-01-21T22:22:55.742Z,15.85
2023-01-21T22:25:25.352Z,15.70
2023-01-21T22:27:54.251Z,15.32
2023-01-21T22:30:24.876Z,15.80
2023-01-21T22:32:53.730Z,17.15
2023-01-21T22:35:22.542Z,16.62
2023-01-21T22:37:52.125Z,15.98
2023-01-21T22:40:20.867Z,17.07
2023-01-21T22:42:50.180Z,16.42
2023-01-21T22:45:21.674Z,17.57
2023-01-21T22:47:49.969Z,18.07
2023-01-21T22:50:19.663Z,17.48
2023-01-21T22:52:49.625Z,17.48
2023-01-21T22:55:19.077Z,17.60
2023-01-21T22:57:48.534Z,18.25
2023-01-21T23:00:22.033Z,17.80
2023-01-21T23:02:51.915Z,18.17
2023-01-21T23:05:22.185Z,18.23
2023-01-21T23:07:51.304Z,17.75
2023-01-21T23:10:20.589Z,17.82
2023-01-21T23:12:50.216Z,18.95
2023-01-21T23:15:20.543Z,18.05
2023-01-21T23:17:49.501Z,19.23
2023-01-21T23:20:20.461Z,18.02
2023-01-21T23:22:49.641Z,17.85
2023-01-21T23:25:18.563Z,18.35
2023-01-21T23:27:47.583Z,18.50
2023-01-21T23:30:17.948Z,19.20
2023-01-21T23:32:48.518Z,18.48
2023-01-21T23:35:19.004Z,19.85
2023-01-21T23:37:49.752Z,19.65
2023-01-21T23:40:18.763Z,20.90
2023-01-21T23:42:48.794Z,19.87
2023-01-21T23:45:17.864Z,19.10
2023-01-21T23:47:47.312Z,18.62
2023-01-21T23:50:17.374Z,18.98
2023-01-21T23:52:47.250Z,19.95
2023-01-21T23:55:16.478Z,18.57
2023-01-21T23:57:46.763Z,18.10
